Time;durP1;ratioP1;P1;durP2;ratioP2;P2;SDS_P1;SDS_P2;PMS_P1;PMS_P2;Temp;Humidity;BMP_temperature;BMP_pressure;BME280_temperature;BME280_humidity;BME280_pressure;Samples;Min_cycle;Max_cycle;Signal;HPM_P1;HPM_P2
2022/05/27 00:00:49;;;;;;;11.33;10.13;;;;;;;9.98;88.12;99569.47;5114031;28;20032;-65
2022/05/27 00:03:15;;;;;;;11.03;9.77;;;;;;;10.08;87.83;99593.09;5114128;28;20031;-62
2022/05/27 00:05:41;;;;;;;12.30;9.47;;;;;;;10.07;88.11;99581.63;5113792;28;20043;-62
2022/05/27 00:08:07;;;;;;;11.70;10.03;;;;;;;10.10;88.42;99586.56;5113406;28;20142;-63
2022/05/27 00:10:34;;;;;;;12.33;9.67;;;;;;;10.07;87.96;99576.31;5113379;28;20044;-63
2022/05/27 00:12:59;;;;;;;13.80;10.50;;;;;;;10.08;87.99;99575.31;5113473;28;20039;-61
2022/05/27 00:15:25;;;;;;;11.50;9.57;;;;;;;10.10;87.71;99567.94;5113644;28;20091;-62
2022/05/27 00:18:16;;;;;;;14.37;10.73;;;;;;;10.15;88.22;99576.22;5113489;28;20077;-62
2022/05/27 00:20:42;;;;;;;15.00;10.70;;;;;;;10.12;88.19;99573.94;5113379;28;20126;-63
2022/05/27 00:23:07;;;;;;;14.03;10.43;;;;;;;10.10;87.77;99559.97;5113104;28;20547;-62
2022/05/27 00:25:33;;;;;;;13.40;11.17;;;;;;;10.15;88.19;99568.22;5113199;28;20028;-62
2022/05/27 00:27:59;;;;;;;13.57;10.43;;;;;;;10.16;88.20;99561.91;5113202;28;20372;-63
2022/05/27 00:30:25;;;;;;;15.30;11.23;;;;;;;10.17;88.44;99554.75;5113227;28;20474;-65
2022/05/27 00:32:51;;;;;;;15.13;10.17;;;;;;;10.21;88.06;99556.88;5113009;28;20035;-63
2022/05/27 00:35:17;;;;;;;12.43;10.70;;;;;;;10.23;88.18;99554.84;5112992;28;20050;-63
2022/05/27 00:37:42;;;;;;;16.03;12.30;;;;;;;10.26;87.98;99552.81;5094554;28;20035;-64
2022/05/27 00:40:10;;;;;;;15.90;11.80;;;;;;;10.30;88.54;99554.88;5112940;28;20067;-64
2022/05/27 00:42:41;;;;;;;16.73;13.43;;;;;;;10.33;87.98;99551.03;5113148;28;20032;-63
2022/05/27 00:45:13;;;;;;;17.60;15.03;;;;;;;10.09;87.60;99515.75;5113069;28;20579;-62
2022/05/27 00:47:39;;;;;;;18.80;16.07;;;;;;;10.20;88.11;99539.25;5112765;28;20035;-61
2022/05/27 00:50:08;;;;;;;21.53;16.50;;;;;;;10.16;88.64;99543.28;5112785;28;20079;-65
2022/05/27 00:52:39;;;;;;;19.73;15.40;;;;;;;10.16;89.02;99542.44;5112908;28;20039;-63
2022/05/27 00:55:11;;;;;;;20.47;15.47;;;;;;;10.13;88.44;99537.50;5094715;28;20398;-65
2022/05/27 00:57:43;;;;;;;17.63;14.10;;;;;;;10.17;88.83;99533.47;5112751;28;20502;-62
2022/05/27 01:00:17;;;;;;;14.77;12.90;;;;;;;10.32;88.52;99536.06;5112694;28;20401;-63
2022/05/27 01:02:42;;;;;;;18.07;13.90;;;;;;;10.39;88.47;99537.78;5112484;28;20076;-62
2022/05/27 01:05:11;;;;;;;17.73;14.13;;;;;;;10.46;87.98;99522.72;5112560;28;20036;-62
2022/05/27 01:07:38;;;;;;;;;;;;;;;10.52;88.26;99523.78;5112748;28;20095;-63
2022/05/27 01:10:08;;;;;;;16.53;14.00;;;;;;;10.42;87.47;99513.47;5094279;28;19980;-63
2022/05/27 01:13:06;;;;;;;17.67;14.33;;;;;;;10.39;87.74;99513.00;5112531;28;20486;-63
2022/05/27 01:15:41;;;;;;;20.60;15.67;;;;;;;10.38;88.11;99516.66;5112537;28;20040;-62
2022/05/27 01:21:49;;;;;;;17.87;15.37;;;;;;;10.41;88.42;99500.34;5112179;28;20053;-62
2022/05/27 01:24:33;;;;;;;24.00;15.77;;;;;;;10.43;88.75;99500.97;5112674;28;20057;-63
2022/05/27 01:27:17;;;;;;;24.50;19.87;;;;;;;10.44;88.34;99502.63;5112080;28;20099;-60
2022/05/27 01:30:00;;;;;;;24.23;19.47;;;;;;;10.41;88.94;99501.16;5111555;28;20031;-62
2022/05/27 01:32:44;;;;;;;22.23;19.20;;;;;;;10.38;88.98;99485.56;5112329;28;20035;-61
2022/05/27 01:35:39;;;;;;;22.67;18.40;;;;;;;10.44;89.41;99492.81;5112331;28;20631;-60
2022/05/27 01:39:03;;;;;;;23.13;16.40;;;;;;;10.53;88.70;99485.50;5112117;28;20034;-62
2022/05/27 01:41:57;;;;;;;20.77;15.23;;;;;;;10.58;87.88;99485.72;5029232;28;20037;-62
2022/05/27 01:44:41;;;;;;;17.13;13.03;;;;;;;10.57;86.54;99473.44;5029671;28;20095;-62
2022/05/27 01:47:11;;;;;;;17.90;13.53;;;;;;;10.58;85.74;99483.06;5075706;28;20432;-63
2022/05/27 01:49:44;;;;;;;18.43;13.60;;;;;;;10.57;85.98;99484.09;5112307;28;20038;-62
2022/05/27 01:52:15;;;;;;;17.00;13.53;;;;;;;10.54;85.79;99477.31;5112051;28;20039;-62
2022/05/27 01:54:50;;;;;;;15.17;12.83;;;;;;;10.55;85.07;99483.44;5111915;28;20122;-61
2022/05/27 01:57:27;;;;;;;13.17;11.50;;;;;;;10.54;84.72;99476.47;5112206;28;20534;-61
2022/05/27 02:00:02;;;;;;;12.73;10.13;;;;;;;10.48;83.99;99477.25;5093863;28;20028;-64
2022/05/27 02:02:30;;;;;;;11.90;10.13;;;;;;;10.36;83.68;99473.47;5094133;28;20044;-61
2022/05/27 02:05:11;;;;;;;12.70;9.70;;;;;;;10.37;83.48;99480.44;5111926;28;20431;-60
2022/05/27 02:07:46;;;;;;;10.27;9.17;;;;;;;10.32;83.63;99461.56;5111646;28;20055;-60
2022/05/27 02:10:20;;;;;;;10.83;9.70;;;;;;;10.42;83.36;99476.19;5112137;28;20134;-62
2022/05/27 02:13:03;;;;;;;9.63;8.73;;;;;;;10.41;82.93;99476.41;5111972;28;20023;-61
2022/05/27 02:15:35;;;;;;;13.33;10.83;;;;;;;10.40;82.70;99472.06;5111987;28;20039;-62
2022/05/27 02:18:21;;;;;;;10.30;9.30;;;;;;;10.41;82.85;99465.75;5111912;28;20065;-61
2022/05/27 02:21:05;;;;;;;11.30;10.20;;;;;;;10.45;82.96;99469.66;5111989;28;20042;-62
2022/05/27 02:23:40;;;;;;;13.90;10.50;;;;;;;10.47;82.86;99465.78;5111842;28;20027;-61
2022/05/27 02:26:13;;;;;;;11.90;10.50;;;;;;;10.47;83.27;99459.66;5111941;28;20035;-63
2022/05/27 02:28:43;;;;;;;10.90;9.40;;;;;;;10.51;83.47;99452.91;5111849;28;20470;-63
2022/05/27 02:31:16;;;;;;;9.80;8.80;;;;;;;10.59;82.53;99458.09;5111910;28;20482;-61
2022/05/27 02:36:41;;;;;;;7.90;7.10;;;;;;;10.65;80.83;99449.31;5111466;28;20380;-62
2022/05/27 02:39:07;;;;;;;6.30;5.70;;;;;;;10.70;80.00;99454.91;5111783;28;20036;-63
2022/05/27 02:41:43;;;;;;;6.20;5.60;;;;;;;10.74;79.45;99450.81;5113115;28;20485;-62
2022/05/27 02:44:21;;;;;;;6.63;5.93;;;;;;;10.71;79.37;99447.72;5115114;28;20108;-63
2022/05/27 02:46:55;;;;;;;7.43;6.57;;;;;;;10.72;79.68;99446.72;5114850;28;20043;-63
2022/05/27 02:49:45;;;;;;;8.43;7.37;;;;;;;10.78;80.30;99452.06;5115263;28;20035;-61
2022/05/27 02:52:36;;;;;;;8.87;7.97;;;;;;;10.80;80.21;99458.03;5115112;28;20072;-63
2022/05/27 02:55:13;;;;;;;9.50;8.60;;;;;;;10.75;80.49;99452.47;5114913;28;20127;-64
2022/05/27 02:57:48;;;;;;;8.20;7.40;;;;;;;10.74;80.17;99452.66;5114806;28;20077;-62
2022/05/27 03:00:21;;;;;;;9.33;8.33;;;;;;;10.63;81.26;99446.03;5115266;28;20059;-61
2022/05/27 03:02:48;;;;;;;8.07;7.23;;;;;;;10.64;80.05;99444.19;5114924;28;20130;-62
2022/05/27 03:05:17;;;;;;;8.20;7.40;;;;;;;10.61;80.13;99450.72;5114754;28;20409;-59
2022/05/27 03:07:56;;;;;;;8.03;7.33;;;;;;;10.63;79.91;99447.88;5114705;28;20456;-63
2022/05/27 03:10:40;;;;;;;9.40;7.57;;;;;;;10.72;80.27;99458.19;5114900;28;20052;-63
2022/05/27 03:13:14;;;;;;;8.10;7.30;;;;;;;10.76;79.69;99454.13;5114712;28;20047;-61
2022/05/27 03:16:04;;;;;;;7.93;5.77;;;;;;;10.72;78.91;99454.72;5114558;28;20378;-63
2022/05/27 03:19:08;;;;;;;5.87;5.20;;;;;;;10.70;77.82;99448.75;5114616;28;20061;-62
2022/05/27 03:22:02;;;;;;;5.40;4.90;;;;;;;10.73;78.18;99446.53;5114474;28;20559;-62
2022/05/27 03:24:45;;;;;;;6.00;5.27;;;;;;;10.76;77.47;99440.81;5114218;28;20036;-62
2022/05/27 03:27:30;;;;;;;5.70;4.67;;;;;;;10.78;76.56;99438.75;5114291;28;20080;-63
2022/05/27 03:30:07;;;;;;;4.53;4.13;;;;;;;10.90;75.98;99433.69;5113583;28;20501;-60
2022/05/27 03:32:41;;;;;;;4.33;3.93;;;;;;;11.02;75.95;99433.97;5114424;28;20069;-62
2022/05/27 03:35:13;;;;;;;5.07;4.37;;;;;;;11.05;76.33;99436.25;5114223;28;20075;-62
2022/05/27 03:37:46;;;;;;;5.00;4.50;;;;;;;10.97;75.46;99429.22;5114295;28;20074;-62
2022/05/27 03:40:21;;;;;;;4.67;4.27;;;;;;;11.05;75.99;99433.56;5114196;28;20043;-63
2022/05/27 03:42:46;;;;;;;5.97;4.30;;;;;;;11.11;76.51;99433.59;5114042;28;20039;-62
2022/05/27 03:45:17;;;;;;;4.40;4.00;;;;;;;11.18;75.80;99437.09;5113983;28;20039;-63
2022/05/27 03:47:44;;;;;;;4.07;3.77;;;;;;;11.21;75.75;99424.41;5095830;28;20046;-63
2022/05/27 03:50:20;;;;;;;4.70;4.20;;;;;;;11.20;75.51;99417.44;5114123;28;20497;-62
2022/05/27 03:52:48;;;;;;;3.97;3.57;;;;;;;11.15;74.58;99426.03;5113391;28;20108;-65
2022/05/27 03:55:17;;;;;;;4.72;4.30;;;;;;;11.02;74.80;99421.47;5113855;28;20038;-65
2022/05/27 03:57:43;;;;;;;;;;;;;;;11.04;76.32;99423.94;5114142;28;20430;-67
2022/05/27 04:00:10;;;;;;;4.30;3.90;;;;;;;10.97;75.81;99420.41;5113817;28;20004;-64
2022/05/27 04:02:36;;;;;;;5.27;4.20;;;;;;;10.92;76.17;99425.50;5095463;28;20076;-63
2022/05/27 04:05:03;;;;;;;4.40;4.00;;;;;;;10.81;76.44;99418.91;5095590;28;20398;-65
2022/05/27 04:07:31;;;;;;;4.10;3.70;;;;;;;10.72;76.27;99426.22;5113410;28;20491;-65
2022/05/27 04:09:57;;;;;;;4.13;3.65;;;;;;;10.68;76.23;99422.28;5113328;28;20517;-64
2022/05/27 04:12:22;;;;;;;3.83;3.53;;;;;;;10.53;76.57;99410.94;5113475;28;20116;-63
2022/05/27 04:14:52;;;;;;;4.03;3.63;;;;;;;10.54;77.12;99423.25;5095259;28;20067;-65
2022/05/27 04:17:27;;;;;;;3.43;3.13;;;;;;;10.54;78.06;99423.25;5113515;28;20054;-75
2022/05/27 04:19:53;;;;;;;3.83;3.43;;;;;;;10.57;77.54;99409.53;5113616;28;20032;-68
2022/05/27 04:22:20;;;;;;;3.50;3.20;;;;;;;10.61;77.01;99421.44;5112990;28;20149;-70
2022/05/27 04:24:45;;;;;;;3.77;3.17;;;;;;;10.52;77.36;99414.63;5113577;28;20057;-65
2022/05/27 04:27:17;;;;;;;3.67;3.20;;;;;;;10.55;78.23;99420.38;5112947;28;20431;-66
2022/05/27 04:29:50;;;;;;;3.63;3.00;;;;;;;10.42;77.52;99399.03;5113274;28;20070;-65
2022/05/27 04:32:16;;;;;;;4.67;3.63;;;;;;;10.53;77.23;99422.41;5113475;28;20043;-66
2022/05/27 04:34:42;;;;;;;4.30;3.67;;;;;;;10.52;77.68;99423.44;5113035;28;20032;-64
2022/05/27 04:37:09;;;;;;;3.40;3.10;;;;;;;10.48;77.39;99413.38;5112804;28;20051;-65
2022/05/27 04:39:35;;;;;;;4.17;3.50;;;;;;;10.47;77.80;99411.75;5113173;28;20035;-63
2022/05/27 04:42:00;;;;;;;3.53;3.23;;;;;;;10.42;77.88;99404.34;5113071;28;20040;-64
2022/05/27 04:44:26;;;;;;;2.50;2.30;;;;;;;10.41;76.46;99407.19;5112904;28;20603;-67
2022/05/27 04:46:52;;;;;;;3.50;2.53;;;;;;;10.49;77.35;99415.84;5112719;28;20562;-67
2022/05/27 04:52:02;;;;;;;3.90;3.50;;;;;;;10.70;76.44;99416.81;5112570;28;20043;-65
2022/05/27 04:54:28;;;;;;;3.17;2.87;;;;;;;10.73;76.40;99417.22;5112869;28;20034;-62
2022/05/27 04:56:58;;;;;;;3.03;2.67;;;;;;;10.71;75.93;99405.94;5112605;28;20063;-64
2022/05/27 04:59:24;;;;;;;3.70;3.33;;;;;;;10.69;76.20;99405.31;5112700;28;20063;-64
2022/05/27 05:01:49;;;;;;;3.63;2.87;;;;;;;10.73;75.22;99390.59;5112538;28;20036;-64
2022/05/27 05:04:15;;;;;;;2.60;2.30;;;;;;;11.02;74.07;99399.34;5111243;28;20035;-65
2022/05/27 05:06:42;;;;;;;2.87;2.50;;;;;;;11.06;74.36;99401.41;5094190;28;20145;-65
2022/05/27 05:09:08;;;;;;;3.97;3.20;;;;;;;11.02;74.57;99405.50;5094402;28;20092;-61
2022/05/27 05:11:34;;;;;;;2.87;2.57;;;;;;;10.85;75.27;99397.00;5112610;28;20410;-70
2022/05/27 05:14:00;;;;;;;2.87;2.43;;;;;;;10.68;75.29;99390.34;5112505;28;20035;-67
2022/05/27 05:16:26;;;;;;;4.57;3.03;;;;;;;10.64;76.60;99402.41;5077244;28;20031;-68
2022/05/27 05:18:52;;;;;;;2.93;2.63;;;;;;;10.60;76.73;99400.34;5112322;28;20032;-66
2022/05/27 05:21:18;;;;;;;2.97;2.67;;;;;;;10.52;77.21;99403.97;5112435;28;20032;-66
2022/05/27 05:23:45;;;;;;;5.88;3.78;;;;;;;10.51;77.97;99394.34;5094371;28;20054;-63
2022/05/27 05:26:11;;;;;;;4.07;3.17;;;;;;;10.54;77.72;99393.97;5112059;28;20035;-64
2022/05/27 05:28:39;;;;;;;4.37;3.40;;;;;;;10.53;76.79;99381.66;5111836;28;20032;-66
2022/05/27 05:31:06;;;;;;;3.78;3.40;;;;;;;10.59;77.71;99383.53;5111943;28;20028;-75
2022/05/27 05:33:32;;;;;;;3.63;3.33;;;;;;;10.60;77.25;99379.84;5112192;28;20069;-65
2022/05/27 05:35:58;;;;;;;5.23;3.20;;;;;;;10.68;77.05;99387.69;5110403;28;20057;-63
2022/05/27 05:38:25;;;;;;;3.97;3.37;;;;;;;10.78;77.11;99385.50;5111869;28;20031;-62
2022/05/27 05:40:50;;;;;;;6.43;3.23;;;;;;;10.77;76.64;99391.03;5112746;28;20122;-68
2022/05/27 05:43:16;;;;;;;3.67;3.23;;;;;;;10.68;76.35;99387.69;5113389;28;20066;-71
2022/05/27 05:45:41;;;;;;;3.70;3.40;;;;;;;10.58;76.64;99381.06;5111705;28;20032;-69
2022/05/27 05:48:07;;;;;;;5.50;4.57;;;;;;;10.54;77.96;99392.13;5093601;28;20032;-74
2022/05/27 05:50:33;;;;;;;3.90;3.60;;;;;;;10.57;77.25;99390.91;5076581;28;20027;-70
2022/05/27 05:52:59;;;;;;;4.27;3.70;;;;;;;10.53;77.47;99389.66;5114214;28;20038;-68
2022/05/27 05:55:26;;;;;;;4.43;3.53;;;;;;;10.54;77.77;99378.00;5114254;28;20039;-68
2022/05/27 05:57:52;;;;;;;4.27;3.60;;;;;;;10.59;77.94;99382.72;5112918;28;20043;-65
2022/05/27 06:00:22;;;;;;;3.93;3.57;;;;;;;10.59;77.89;99383.53;5111976;28;20078;-65
